Time;durP1;ratioP1;P1;durP2;ratioP2;P2;SDS_P1;SDS_P2;PMS_P1;PMS_P2;Temp;Humidity;BMP_temperature;BMP_pressure;BME280_temperature;BME280_humidity;BME280_pressure;Samples;Min_cycle;Max_cycle;Signal;HPM_P1;HPM_P2
2023/02/21 02:13:49;;;;;;;64.72;43.08;;;;;;;;;;5050734;28;20036;-59
2023/02/21 02:16:24;;;;;;;67.78;42.67;;;;;;;;;;5034347;28;20040;-58
2023/02/21 02:18:50;;;;;;;68.07;41.65;;;;;;;;;;5052729;28;20052;-58
2023/02/21 02:21:33;;;;;;;59.17;40.38;;;;;;;;;;5052429;28;20435;-58
2023/02/21 02:24:23;;;;;;;63.63;41.38;;;;;;;;;;5051696;28;20096;-57
2023/02/21 02:26:55;;;;;;;60.30;38.08;;;;;;;;;;5052439;28;20424;-61
2023/02/21 02:29:23;;;;;;;66.13;41.90;;;;;;;;;;5052153;28;20024;-58
2023/02/21 02:32:12;;;;;;;71.28;40.47;;;;;;;;;;5034280;28;20075;-59
2023/02/21 02:34:43;;;;;;;67.03;41.05;;;;;;;;;;5051366;28;20118;-60
2023/02/21 02:37:14;;;;;;;63.60;41.40;;;;;;;;;;5052328;28;20044;-64
2023/02/21 02:39:49;;;;;;;64.97;41.45;;;;;;;;;;5034450;28;20559;-58
2023/02/21 02:42:48;;;;;;;65.05;43.45;;;;;;;;;;5052498;28;20162;-60
2023/02/21 02:45:26;;;;;;;62.70;40.55;;;;;;;;;;4995653;28;20045;-63
2023/02/21 02:47:55;;;;;;;61.53;41.88;;;;;;;;;;5052464;28;20021;-63
2023/02/21 02:50:21;;;;;;;69.43;39.33;;;;;;;;;;5036830;28;20120;-62
2023/02/21 02:52:52;;;;;;;64.45;40.05;;;;;;;;;;5054404;28;20083;-62
2023/02/21 02:55:27;;;;;;;69.43;40.40;;;;;;;;;;5053689;28;20025;-60
2023/02/21 02:57:53;;;;;;;64.28;40.78;;;;;;;;;;5054233;28;20024;-60
2023/02/21 03:00:19;;;;;;;65.13;40.55;;;;;;;;;;5036321;28;20541;-61
2023/02/21 03:02:54;;;;;;;68.18;41.83;;;;;;;;;;5054718;28;20375;-60
2023/02/21 03:05:32;;;;;;;74.00;44.35;;;;;;;;;;5035205;28;20021;-61
2023/02/21 03:08:11;;;;;;;68.57;43.38;;;;;;;;;;5046842;28;20049;-60
2023/02/21 03:10:45;;;;;;;69.82;43.28;;;;;;;;;;5043526;28;20044;-62
2023/02/21 03:13:11;;;;;;;69.22;43.22;;;;;;;;;;5030757;28;20561;-62
2023/02/21 03:15:52;;;;;;;73.60;43.05;;;;;;;;;;5028623;28;20068;-63
2023/02/21 03:18:28;;;;;;;68.68;44.15;;;;;;;;;;5054882;28;20017;-61
2023/02/21 03:20:56;;;;;;;68.28;40.53;;;;;;;;;;5054561;28;20031;-58
2023/02/21 03:23:24;;;;;;;72.70;43.75;;;;;;;;;;5053269;28;20151;-61
2023/02/21 03:25:50;;;;;;;73.00;43.28;;;;;;;;;;5035626;28;20478;-59
2023/02/21 03:28:17;;;;;;;68.43;41.63;;;;;;;;;;5053624;28;20033;-60
2023/02/21 03:30:44;;;;;;;71.35;42.28;;;;;;;;;;5045011;28;20025;-63
2023/02/21 03:33:10;;;;;;;72.88;45.72;;;;;;;;;;5052861;28;20025;-61
2023/02/21 03:35:36;;;;;;;68.25;43.47;;;;;;;;;;5035329;28;20033;-61
2023/02/21 03:38:02;;;;;;;73.47;43.88;;;;;;;;;;5053476;28;20029;-62
2023/02/21 03:40:30;;;;;;;72.68;44.35;;;;;;;;;;5053364;28;20547;-62
2023/02/21 03:42:57;;;;;;;72.13;44.65;;;;;;;;;;5053275;28;20064;-60
2023/02/21 03:45:23;;;;;;;69.70;41.35;;;;;;;;;;5052522;28;20060;-61
2023/02/21 03:47:49;;;;;;;80.72;44.85;;;;;;;;;;5054449;28;20021;-61
2023/02/21 03:50:15;;;;;;;71.25;42.50;;;;;;;;;;5053935;28;20416;-62
2023/02/21 03:52:41;;;;;;;76.65;43.53;;;;;;;;;;5036235;28;20028;-62
2023/02/21 03:55:07;;;;;;;68.57;42.42;;;;;;;;;;5035352;28;20512;-61
2023/02/21 03:57:34;;;;;;;79.13;43.95;;;;;;;;;;5053852;28;20037;-63
2023/02/21 04:00:00;;;;;;;77.38;45.60;;;;;;;;;;5035278;28;20024;-62
2023/02/21 04:02:26;;;;;;;75.28;43.55;;;;;;;;;;5053013;28;20396;-62
2023/02/21 04:04:52;;;;;;;72.78;40.83;;;;;;;;;;5033821;28;20112;-59
2023/02/21 04:07:18;;;;;;;78.38;43.25;;;;;;;;;;5035104;28;20036;-62
2023/02/21 04:09:45;;;;;;;78.72;44.33;;;;;;;;;;5052855;28;20025;-60
2023/02/21 04:12:11;;;;;;;75.05;43.92;;;;;;;;;;5034949;28;20021;-60
2023/02/21 04:14:38;;;;;;;76.63;47.42;;;;;;;;;;5052013;28;20081;-62
2023/02/21 04:17:04;;;;;;;81.88;45.42;;;;;;;;;;5034652;28;20056;-62
2023/02/21 04:19:30;;;;;;;83.97;45.35;;;;;;;;;;5034690;28;20029;-62
2023/02/21 04:21:56;;;;;;;88.85;47.03;;;;;;;;;;5052739;28;20025;-60
2023/02/21 04:24:22;;;;;;;83.60;49.40;;;;;;;;;;5033631;28;20063;-61
2023/02/21 04:26:48;;;;;;;86.00;47.38;;;;;;;;;;5052473;28;20056;-62
2023/02/21 04:29:14;;;;;;;82.55;44.53;;;;;;;;;;5034613;28;20063;-62
2023/02/21 04:31:40;;;;;;;89.60;44.30;;;;;;;;;;5034566;28;20059;-62
2023/02/21 04:34:06;;;;;;;85.22;47.20;;;;;;;;;;5051775;28;20021;-62
2023/02/21 04:36:32;;;;;;;90.57;46.72;;;;;;;;;;5052000;28;20442;-61
2023/02/21 04:38:58;;;;;;;89.40;46.67;;;;;;;;;;5052266;28;20053;-62
2023/02/21 04:41:24;;;;;;;85.50;47.72;;;;;;;;;;5051969;28;20041;-62
2023/02/21 04:43:51;;;;;;;87.32;45.75;;;;;;;;;;5051340;28;20565;-60
2023/02/21 04:46:17;;;;;;;82.35;42.10;;;;;;;;;;5034157;28;20036;-61
2023/02/21 04:48:44;;;;;;;77.10;43.17;;;;;;;;;;5052184;28;20021;-62
2023/02/21 04:51:11;;;;;;;80.63;41.67;;;;;;;;;;5052208;28;20023;-60
2023/02/21 04:53:37;;;;;;;96.05;48.05;;;;;;;;;;5033414;28;20029;-62
2023/02/21 04:56:03;;;;;;;84.80;40.95;;;;;;;;;;5051935;28;20116;-60
2023/02/21 04:58:29;;;;;;;91.60;49.50;;;;;;;;;;5051782;28;20033;-62
2023/02/21 05:00:55;;;;;;;103.40;49.40;;;;;;;;;;5033861;28;20021;-61
2023/02/21 05:03:22;;;;;;;100.85;49.58;;;;;;;;;;5033241;28;20590;-61
2023/02/21 05:05:48;;;;;;;96.50;48.25;;;;;;;;;;5051601;28;20032;-60
2023/02/21 05:08:14;;;;;;;94.63;50.25;;;;;;;;;;5051614;28;20493;-60
2023/02/21 05:10:40;;;;;;;81.72;44.70;;;;;;;;;;5032851;28;20055;-62
2023/02/21 05:13:06;;;;;;;86.80;45.80;;;;;;;;;;5050931;28;20021;-60
2023/02/21 05:15:32;;;;;;;100.40;50.97;;;;;;;;;;5033827;28;20067;-62
2023/02/21 05:17:58;;;;;;;96.07;47.15;;;;;;;;;;5033945;28;20028;-62
2023/02/21 05:20:24;;;;;;;95.22;48.15;;;;;;;;;;5033515;28;20447;-63
2023/02/21 05:22:50;;;;;;;91.78;45.47;;;;;;;;;;5051555;28;20040;-61
2023/02/21 05:25:17;;;;;;;101.43;49.28;;;;;;;;;;5050751;28;20028;-63
2023/02/21 05:27:43;;;;;;;107.63;56.45;;;;;;;;;;5033653;28;20060;-61
2023/02/21 05:30:10;;;;;;;93.75;50.88;;;;;;;;;;5051463;28;20421;-61
2023/02/21 05:32:36;;;;;;;105.97;55.28;;;;;;;;;;5033471;28;20060;-61
2023/02/21 05:35:02;;;;;;;110.32;52.22;;;;;;;;;;5050582;28;20033;-62
2023/02/21 05:37:28;;;;;;;113.47;52.58;;;;;;;;;;5033360;28;20029;-62
2023/02/21 05:39:54;;;;;;;104.65;53.80;;;;;;;;;;5051114;28;20071;-62
2023/02/21 05:42:20;;;;;;;101.05;53.90;;;;;;;;;;5033052;28;20029;-62
2023/02/21 05:44:46;;;;;;;92.90;52.83;;;;;;;;;;5050507;28;20538;-61
2023/02/21 05:47:16;;;;;;;109.57;53.63;;;;;;;;;;5035244;28;20068;-60
2023/02/21 05:49:42;;;;;;;105.05;52.78;;;;;;;;;;5051194;28;20021;-60
2023/02/21 05:52:10;;;;;;;105.57;55.80;;;;;;;;;;5051231;28;20078;-60
2023/02/21 05:54:36;;;;;;;108.35;52.97;;;;;;;;;;5032699;28;20392;-62
2023/02/21 05:57:02;;;;;;;111.00;56.97;;;;;;;;;;5050987;28;20033;-60
2023/02/21 05:59:28;;;;;;;97.38;52.72;;;;;;;;;;5033180;28;20060;-61
2023/02/21 06:01:55;;;;;;;113.72;55.92;;;;;;;;;;5033320;28;20059;-60
2023/02/21 06:04:21;;;;;;;117.82;60.78;;;;;;;;;;5050121;28;20025;-61
2023/02/21 06:06:47;;;;;;;111.95;58.13;;;;;;;;;;5051021;28;20028;-61
2023/02/21 06:09:13;;;;;;;118.05;57.67;;;;;;;;;;5051059;28;20021;-61
2023/02/21 06:11:39;;;;;;;92.72;53.00;;;;;;;;;;5050734;28;20112;-61
2023/02/21 06:14:07;;;;;;;109.72;57.78;;;;;;;;;;5049997;28;20021;-61
2023/02/21 06:16:34;;;;;;;107.93;57.63;;;;;;;;;;5033108;28;20036;-62
2023/02/21 06:19:00;;;;;;;112.65;57.42;;;;;;;;;;5032761;28;20078;-60
2023/02/21 06:21:26;;;;;;;113.47;60.30;;;;;;;;;;5033150;28;20021;-61
2023/02/21 06:23:52;;;;;;;109.05;56.45;;;;;;;;;;5050905;28;20096;-61
2023/02/21 06:26:18;;;;;;;99.60;54.83;;;;;;;;;;5025765;28;20033;-59
2023/02/21 06:28:44;;;;;;;123.68;67.22;;;;;;;;;;5052810;28;20035;-61
2023/02/21 06:31:10;;;;;;;99.72;58.55;;;;;;;;;;5030127;28;20025;-61
2023/02/21 06:33:36;;;;;;;116.07;60.50;;;;;;;;;;5053794;28;20024;-62
2023/02/21 06:36:06;;;;;;;99.63;61.47;;;;;;;;;;5047435;22;20045;-58
2023/02/21 06:38:32;;;;;;;99.68;61.70;;;;;;;;;;5016864;28;20402;-54
2023/02/21 06:40:59;;;;;;;99.63;58.65;;;;;;;;;;5015989;28;20053;-58
2023/02/21 06:43:25;;;;;;;99.72;59.95;;;;;;;;;;5033115;28;20534;-58
2023/02/21 06:45:51;;;;;;;91.22;58.35;;;;;;;;;;5033294;28;20125;-58
2023/02/21 06:48:17;;;;;;;107.68;62.03;;;;;;;;;;5033884;28;20482;-57
2023/02/21 06:50:43;;;;;;;94.40;57.63;;;;;;;;;;5033632;28;20065;-59
2023/02/21 06:53:09;;;;;;;108.93;60.55;;;;;;;;;;5033248;28;20029;-58
2023/02/21 06:55:35;;;;;;;92.75;55.10;;;;;;;;;;5033633;28;20030;-58
2023/02/21 06:58:01;;;;;;;95.15;57.05;;;;;;;;;;5033850;28;20426;-57
2023/02/21 07:00:27;;;;;;;86.78;54.92;;;;;;;;;;5033852;28;20034;-58
2023/02/21 07:02:53;;;;;;;94.65;58.55;;;;;;;;;;5016041;28;20049;-58
2023/02/21 07:05:19;;;;;;;89.15;55.53;;;;;;;;;;5033028;28;20036;-59
2023/02/21 07:07:45;;;;;;;94.30;55.72;;;;;;;;;;5033839;28;20025;-57
2023/02/21 07:10:12;;;;;;;88.53;54.88;;;;;;;;;;5015919;28;20027;-58
2023/02/21 07:12:38;;;;;;;92.10;58.95;;;;;;;;;;5028715;28;20068;-59
2023/02/21 07:15:04;;;;;;;96.13;59.47;;;;;;;;;;5008097;28;20036;-53
2023/02/21 07:17:30;;;;;;;88.47;54.83;;;;;;;;;;5018054;28;20056;-59
2023/02/21 07:19:56;;;;;;;82.32;57.00;;;;;;;;;;5013693;28;20022;-59
2023/02/21 07:22:24;;;;;;;90.68;56.88;;;;;;;;;;5033290;28;20041;-58
2023/02/21 07:24:50;;;;;;;;;;;;;;;;;;5015006;28;20045;-59
2023/02/21 07:27:16;;;;;;;95.93;58.10;;;;;;;;;;5032919;28;19905;-60
2023/02/21 07:29:42;;;;;;;104.38;59.13;;;;;;;;;;5004819;28;20068;-62
2023/02/21 07:32:08;;;;;;;114.72;61.80;;;;;;;;;;5014157;28;20022;-56
2023/02/21 07:34:34;;;;;;;101.60;56.88;;;;;;;;;;5012250;28;20501;-59
2023/02/21 07:37:00;;;;;;;95.72;62.25;;;;;;;;;;5013534;28;20120;-57
2023/02/21 07:39:26;;;;;;;101.97;62.92;;;;;;;;;;5013530;28;20516;-59
2023/02/21 07:41:52;;;;;;;102.03;57.58;;;;;;;;;;4995772;28;20083;-59
2023/02/21 07:44:18;;;;;;;115.20;60.88;;;;;;;;;;5012644;28;20092;-59
2023/02/21 07:46:45;;;;;;;114.90;60.85;;;;;;;;;;5023206;28;20017;-58
2023/02/21 07:49:11;;;;;;;113.32;57.78;;;;;;;;;;5033088;28;20101;-58
2023/02/21 07:51:37;;;;;;;98.70;57.55;;;;;;;;;;5015213;28;20026;-57
2023/02/21 07:54:03;;;;;;;116.22;62.08;;;;;;;;;;5032663;28;20022;-57
2023/02/21 07:56:29;;;;;;;98.75;56.97;;;;;;;;;;5033038;28;20073;-57
2023/02/21 07:58:55;;;;;;;122.88;62.85;;;;;;;;;;5032828;28;20069;-56
2023/02/21 08:01:25;;;;;;;115.50;57.55;;;;;;;;;;5015775;28;20045;-57
2023/02/21 08:03:51;;;;;;;108.93;59.92;;;;;;;;;;5014517;28;20076;-58
2023/02/21 08:06:17;;;;;;;103.60;55.08;;;;;;;;;;5015061;28;20112;-58
2023/02/21 08:08:44;;;;;;;114.78;61.97;;;;;;;;;;5032884;28;20021;-57
2023/02/21 08:11:10;;;;;;;100.57;58.90;;;;;;;;;;5015457;28;20025;-58
2023/02/21 08:13:36;;;;;;;117.85;66.25;;;;;;;;;;5031904;28;20021;-58
2023/02/21 08:16:02;;;;;;;103.13;56.95;;;;;;;;;;5032689;28;20452;-58
2023/02/21 08:18:28;;;;;;;107.53;62.05;;;;;;;;;;5015065;28;20160;-56
2023/02/21 08:20:56;;;;;;;111.72;59.22;;;;;;;;;;5033019;28;20041;-58
2023/02/21 08:23:22;;;;;;;114.50;61.70;;;;;;;;;;5013987;28;20034;-57
2023/02/21 08:25:48;;;;;;;113.80;62.25;;;;;;;;;;5032207;28;20029;-56
2023/02/21 08:28:15;;;;;;;114.32;62.70;;;;;;;;;;5014763;28;20036;-56
2023/02/21 08:30:41;;;;;;;113.80;61.97;;;;;;;;;;5032471;28;20421;-63
2023/02/21 08:33:07;;;;;;;113.30;62.40;;;;;;;;;;5031736;28;20030;-58
2023/02/21 08:35:33;;;;;;;111.72;62.55;;;;;;;;;;5032422;28;20546;-56
2023/02/21 08:38:03;;;;;;;116.03;64.38;;;;;;;;;;5032520;28;20037;-54
2023/02/21 08:40:30;;;;;;;103.10;59.33;;;;;;;;;;5032464;28;20100;-52
2023/02/21 08:42:57;;;;;;;115.22;62.78;;;;;;;;;;5031938;28;20025;-53
2023/02/21 08:45:24;;;;;;;98.90;56.35;;;;;;;;;;5031394;28;20079;-52
2023/02/21 08:47:50;;;;;;;94.72;54.97;;;;;;;;;;5014033;28;20507;-54
2023/02/21 08:50:17;;;;;;;95.18;55.60;;;;;;;;;;5032398;28;20021;-56
2023/02/21 08:52:45;;;;;;;102.90;56.92;;;;;;;;;;5032215;28;20109;-55
2023/02/21 08:55:11;;;;;;;106.60;59.42;;;;;;;;;;5031210;28;20080;-53
2023/02/21 08:57:38;;;;;;;110.22;59.45;;;;;;;;;;5031458;28;20025;-55
2023/02/21 09:00:05;;;;;;;95.20;54.47;;;;;;;;;;5031929;28;20095;-56
2023/02/21 09:02:32;;;;;;;118.63;60.10;;;;;;;;;;5031839;28;20048;-52
2023/02/21 09:04:58;;;;;;;96.93;53.05;;;;;;;;;;5030576;28;20032;-50
2023/02/21 09:07:25;;;;;;;104.30;56.10;;;;;;;;;;5031436;28;20079;-59
2023/02/21 09:09:51;;;;;;;102.18;58.05;;;;;;;;;;5031606;28;20021;-56
2023/02/21 09:12:17;;;;;;;100.88;56.95;;;;;;;;;;5031622;28;20024;-56
2023/02/21 09:14:43;;;;;;;99.05;56.15;;;;;;;;;;5012400;28;20078;-55
2023/02/21 09:17:10;;;;;;;117.57;61.10;;;;;;;;;;5030079;28;20056;-55
2023/02/21 09:19:37;;;;;;;124.18;58.97;;;;;;;;;;5013808;28;20032;-55
2023/02/21 09:22:03;;;;;;;109.95;56.65;;;;;;;;;;5031446;28;20029;-57
2023/02/21 09:24:29;;;;;;;107.88;59.15;;;;;;;;;;5030570;28;20021;-53
2023/02/21 09:27:02;;;;;;;112.55;60.25;;;;;;;;;;5031360;28;20474;-56
2023/02/21 09:29:32;;;;;;;110.80;61.00;;;;;;;;;;5030423;28;20429;-56
2023/02/21 09:31:59;;;;;;;117.20;60.03;;;;;;;;;;5031157;28;20100;-54
2023/02/21 09:34:25;;;;;;;106.82;59.53;;;;;;;;;;5031150;28;20209;-57
2023/02/21 09:36:53;;;;;;;107.10;58.28;;;;;;;;;;5031347;28;20033;-54
2023/02/21 09:39:20;;;;;;;108.07;58.33;;;;;;;;;;5031411;28;20033;-53
2023/02/21 09:41:46;;;;;;;87.28;55.28;;;;;;;;;;5031284;28;20032;-53
2023/02/21 09:44:24;;;;;;;100.55;55.17;;;;;;;;;;5030548;28;20056;-59
2023/02/21 09:46:52;;;;;;;104.03;54.97;;;;;;;;;;5031361;28;20021;-57
2023/02/21 09:49:24;;;;;;;97.43;55.17;;;;;;;;;;5031373;28;20470;-58
2023/02/21 09:51:50;;;;;;;100.57;59.50;;;;;;;;;;5013352;28;20494;-58
2023/02/21 09:54:37;;;;;;;89.13;52.53;;;;;;;;;;5030473;28;20047;-57
2023/02/21 09:57:04;;;;;;;100.60;58.55;;;;;;;;;;5031376;28;20018;-57
2023/02/21 09:59:31;;;;;;;83.03;47.15;;;;;;;;;;5035409;28;20026;-58
2023/02/21 10:02:00;;;;;;;95.03;54.20;;;;;;;;;;5035559;28;20121;-58
2023/02/21 10:04:32;;;;;;;95.13;55.75;;;;;;;;;;5016386;28;20052;-56
2023/02/21 10:07:01;;;;;;;91.80;54.75;;;;;;;;;;5017148;28;20026;-54
2023/02/21 10:09:38;;;;;;;80.50;49.53;;;;;;;;;;5035170;28;20108;-55
2023/02/21 10:12:16;;;;;;;86.28;53.55;;;;;;;;;;5017670;28;20071;-55
2023/02/21 10:14:54;;;;;;;80.85;51.45;;;;;;;;;;5034192;28;20122;-54
2023/02/21 10:17:34;;;;;;;90.10;51.63;;;;;;;;;;5034812;28;20031;-55
2023/02/21 10:20:03;;;;;;;75.10;49.60;;;;;;;;;;5034735;28;20081;-58
2023/02/21 10:22:33;;;;;;;74.15;51.10;;;;;;;;;;5034859;28;20460;-52
2023/02/21 10:25:01;;;;;;;76.68;51.40;;;;;;;;;;5033834;28;20092;-56
2023/02/21 10:27:29;;;;;;;73.38;49.55;;;;;;;;;;5034658;28;20049;-56
2023/02/21 10:29:58;;;;;;;73.53;51.05;;;;;;;;;;5033414;28;20021;-55
2023/02/21 10:32:24;;;;;;;66.57;51.85;;;;;;;;;;5034647;28;20017;-56
2023/02/21 10:34:51;;;;;;;67.63;50.85;;;;;;;;;;5033553;28;20021;-58
2023/02/21 10:37:25;;;;;;;65.35;49.10;;;;;;;;;;5033573;28;20406;-57
2023/02/21 10:39:54;;;;;;;62.45;45.05;;;;;;;;;;5034009;28;20453;-56
2023/02/21 10:42:21;;;;;;;;;;;;;;;;;;5033596;28;20026;-56
2023/02/21 10:44:47;;;;;;;68.65;47.60;;;;;;;;;;5032484;28;20262;-53
2023/02/21 10:47:18;;;;;;;68.70;49.00;;;;;;;;;;5033401;28;20037;-56
2023/02/21 10:49:52;;;;;;;60.10;45.80;;;;;;;;;;5032377;28;20018;-57
2023/02/21 10:52:22;;;;;;;59.33;45.42;;;;;;;;;;5002502;28;20143;-59
2023/02/21 10:55:01;;;;;;;60.10;46.60;;;;;;;;;;5028308;28;20033;-58
2023/02/21 10:57:27;;;;;;;61.72;48.15;;;;;;;;;;5028013;28;20226;-55
2023/02/21 10:59:53;;;;;;;62.08;45.72;;;;;;;;;;5032865;28;20021;-59
2023/02/21 11:02:28;;;;;;;62.53;46.35;;;;;;;;;;5032722;28;20060;-58
2023/02/21 11:04:55;;;;;;;54.58;43.22;;;;;;;;;;5020596;28;20022;-55
2023/02/21 11:07:23;;;;;;;60.83;44.67;;;;;;;;;;4994823;28;20034;-58
2023/02/21 11:09:49;;;;;;;59.15;42.97;;;;;;;;;;5011132;28;20026;-57
2023/02/21 11:12:18;;;;;;;53.47;43.40;;;;;;;;;;4995030;28;20072;-60
2023/02/21 11:15:04;;;;;;;52.72;43.60;;;;;;;;;;4994162;28;20164;-62
2023/02/21 11:17:31;;;;;;;53.15;43.70;;;;;;;;;;5012451;28;20570;-59
2023/02/21 11:20:07;;;;;;;49.97;43.13;;;;;;;;;;5012730;28;20025;-55
2023/02/21 11:22:33;;;;;;;50.58;43.30;;;;;;;;;;5019922;28;20038;-56
2023/02/21 11:25:08;;;;;;;54.08;42.60;;;;;;;;;;4995738;28;20375;-60
2023/02/21 11:27:35;;;;;;;52.15;42.17;;;;;;;;;;5031044;28;20363;-56
2023/02/21 11:30:03;;;;;;;51.63;41.70;;;;;;;;;;5030036;28;20417;-57
2023/02/21 11:32:32;;;;;;;48.65;40.45;;;;;;;;;;5025228;28;20025;-62
2023/02/21 11:35:02;;;;;;;50.80;40.53;;;;;;;;;;5011716;28;20502;-59
2023/02/21 11:37:31;;;;;;;51.30;41.15;;;;;;;;;;4971656;28;1194543;-56
2023/02/21 11:39:59;;;;;;;54.15;41.08;;;;;;;;;;5013718;28;20022;-58
2023/02/21 11:42:25;;;;;;;;;;;;;;;;;;5017705;28;20021;-61
2023/02/21 11:45:06;;;;;;;53.15;38.90;;;;;;;;;;5023669;28;20384;-59
2023/02/21 11:47:38;;;;;;;48.60;38.92;;;;;;;;;;5015282;28;20029;-61
2023/02/21 11:50:10;;;;;;;52.20;41.53;;;;;;;;;;5032142;28;20021;-60
2023/02/21 11:52:43;;;;;;;48.72;39.85;;;;;;;;;;5032647;28;20083;-62
2023/02/21 11:55:17;;;;;;;45.78;38.20;;;;;;;;;;5031903;28;20107;-57
2023/02/21 11:58:01;;;;;;;50.92;39.15;;;;;;;;;;5015715;28;20060;-59
2023/02/21 12:00:27;;;;;;;47.03;36.88;;;;;;;;;;5026050;28;20029;-57
2023/02/21 12:02:56;;;;;;;42.97;36.15;;;;;;;;;;5032533;28;20104;-58
2023/02/21 12:05:31;;;;;;;44.53;36.92;;;;;;;;;;5031909;28;20079;-61
2023/02/21 12:08:20;;;;;;;50.05;39.03;;;;;;;;;;5015256;28;20489;-59
2023/02/21 12:10:46;;;;;;;44.38;33.78;;;;;;;;;;5032458;28;20040;-58
2023/02/21 12:13:28;;;;;;;37.58;31.50;;;;;;;;;;5031460;28;20105;-58
2023/02/21 12:15:54;;;;;;;47.42;36.22;;;;;;;;;;5035384;28;20067;-58
2023/02/21 12:18:34;;;;;;;43.58;35.55;;;;;;;;;;5037603;28;20061;-61
2023/02/21 12:21:06;;;;;;;41.03;34.55;;;;;;;;;;5019059;28;20059;-61
2023/02/21 12:23:44;;;;;;;40.85;35.80;;;;;;;;;;5035307;28;20029;-60
2023/02/21 12:26:10;;;;;;;39.40;33.83;;;;;;;;;;5034626;28;20457;-57
2023/02/21 12:28:59;;;;;;;39.92;33.55;;;;;;;;;;5019176;28;20032;-56
2023/02/21 12:31:30;;;;;;;38.97;33.45;;;;;;;;;;5023580;28;20048;-60
2023/02/21 12:34:05;;;;;;;38.10;33.28;;;;;;;;;;5011737;28;20048;-59
2023/02/21 12:36:54;;;;;;;38.85;34.42;;;;;;;;;;5067761;22;20040;-62
2023/02/21 12:39:28;;;;;;;38.40;34.17;;;;;;;;;;5053347;28;20040;-63
2023/02/21 12:41:54;;;;;;;42.90;35.15;;;;;;;;;;5090975;28;20024;-61
2023/02/21 12:44:40;;;;;;;39.03;33.17;;;;;;;;;;5089906;28;20042;-63
2023/02/21 12:47:12;;;;;;;39.78;34.45;;;;;;;;;;5090594;28;20032;-63
2023/02/21 12:49:38;;;;;;;41.13;35.10;;;;;;;;;;5072722;28;20107;-63
2023/02/21 12:52:15;;;;;;;37.30;33.13;;;;;;;;;;5091130;28;20035;-65
2023/02/21 12:54:47;;;;;;;37.88;33.05;;;;;;;;;;5090215;28;20055;-65
2023/02/21 12:57:15;;;;;;;40.92;34.67;;;;;;;;;;5090601;28;20111;-63
2023/02/21 12:59:56;;;;;;;40.88;35.35;;;;;;;;;;5090773;28;20024;-62
2023/02/21 13:02:38;;;;;;;42.33;35.17;;;;;;;;;;5090865;28;20032;-63
2023/02/21 13:05:13;;;;;;;38.78;34.60;;;;;;;;;;5089663;28;20069;-63
2023/02/21 13:07:59;;;;;;;40.28;34.55;;;;;;;;;;5090135;28;20071;-62
2023/02/21 13:10:27;;;;;;;38.38;33.03;;;;;;;;;;5071959;28;20028;-62
2023/02/21 13:13:09;;;;;;;39.13;34.85;;;;;;;;;;5090100;28;20079;-64
2023/02/21 13:15:36;;;;;;;43.38;34.15;;;;;;;;;;5072168;28;20467;-62
2023/02/21 13:18:05;;;;;;;41.92;34.28;;;;;;;;;;5071462;28;20024;-62
2023/02/21 13:20:39;;;;;;;45.10;35.92;;;;;;;;;;5090167;28;20415;-65
2023/02/21 13:23:39;;;;;;;43.83;34.47;;;;;;;;;;5089861;28;20016;-64
2023/02/21 13:26:24;;;;;;;41.58;34.10;;;;;;;;;;5082093;28;20046;-64
2023/02/21 13:28:54;;;;;;;41.78;33.72;;;;;;;;;;5084381;28;20028;-64
2023/02/21 13:31:27;;;;;;;41.40;33.65;;;;;;;;;;5072001;28;20020;-65
2023/02/21 13:33:58;;;;;;;45.50;35.30;;;;;;;;;;5062453;28;20027;-62
2023/02/21 13:36:42;;;;;;;43.47;37.08;;;;;;;;;;5090338;28;20040;-65
2023/02/21 13:39:08;;;;;;;45.10;36.63;;;;;;;;;;5091340;28;20032;-63
2023/02/21 13:41:36;;;;;;;52.67;38.40;;;;;;;;;;5089982;28;20168;-63
2023/02/21 13:44:06;;;;;;;45.97;37.80;;;;;;;;;;5089519;28;20028;-65
2023/02/21 13:46:35;;;;;;;53.38;41.90;;;;;;;;;;5089140;28;20508;-64
2023/02/21 13:49:20;;;;;;;51.42;40.42;;;;;;;;;;5090573;28;20092;-64
2023/02/21 13:51:47;;;;;;;52.25;40.97;;;;;;;;;;5072914;28;20372;-65
2023/02/21 13:54:20;;;;;;;54.03;43.38;;;;;;;;;;5093088;28;20086;-64
2023/02/21 13:56:48;;;;;;;50.60;40.80;;;;;;;;;;5092761;28;20476;-64
2023/02/21 13:59:23;;;;;;;57.00;43.70;;;;;;;;;;5092326;28;20024;-63
2023/02/21 14:01:50;;;;;;;55.95;42.70;;;;;;;;;;5091033;28;20037;-62
2023/02/21 14:04:35;;;;;;;56.75;43.38;;;;;;;;;;5089557;28;20028;-64
2023/02/21 14:07:01;;;;;;;54.92;41.13;;;;;;;;;;5089954;28;20123;-67
2023/02/21 14:09:27;;;;;;;53.78;40.65;;;;;;;;;;5089894;28;20059;-66
2023/02/21 14:11:53;;;;;;;51.50;38.58;;;;;;;;;;5090003;28;20024;-66
2023/02/21 14:14:22;;;;;;;46.17;37.80;;;;;;;;;;5089001;28;20052;-65
2023/02/21 14:16:50;;;;;;;49.20;38.28;;;;;;;;;;5071997;28;20038;-65
2023/02/21 14:19:22;;;;;;;51.75;39.97;;;;;;;;;;5089779;28;20449;-61
2023/02/21 14:21:49;;;;;;;54.40;40.47;;;;;;;;;;5089933;28;20484;-65
2023/02/21 14:24:19;;;;;;;57.63;42.55;;;;;;;;;;5089071;28;20123;-65
2023/02/21 14:26:49;;;;;;;60.92;42.97;;;;;;;;;;5090029;28;20027;-65
2023/02/21 14:29:31;;;;;;;59.97;41.17;;;;;;;;;;5072266;28;20369;-64
2023/02/21 14:32:15;;;;;;;61.90;43.53;;;;;;;;;;5089690;28;20103;-64
2023/02/21 14:34:47;;;;;;;56.75;40.00;;;;;;;;;;5089614;28;20031;-64
2023/02/21 14:37:13;;;;;;;56.58;42.65;;;;;;;;;;5089176;28;20035;-64
2023/02/21 14:39:40;;;;;;;51.55;39.75;;;;;;;;;;5071487;28;20020;-63
2023/02/21 14:42:16;;;;;;;52.50;39.67;;;;;;;;;;5089901;28;20033;-66
2023/02/21 14:45:01;;;;;;;50.58;36.75;;;;;;;;;;5091263;28;20089;-64
2023/02/21 14:47:30;;;;;;;54.95;39.15;;;;;;;;;;5074900;28;20095;-65
2023/02/21 14:49:56;;;;;;;64.10;40.95;;;;;;;;;;5093283;28;20071;-63
2023/02/21 14:52:25;;;;;;;63.70;46.15;;;;;;;;;;5093113;28;20028;-63
2023/02/21 14:54:51;;;;;;;61.03;43.33;;;;;;;;;;5093090;28;20024;-65
2023/02/21 14:57:35;;;;;;;66.65;45.63;;;;;;;;;;5074660;28;20377;-64
2023/02/21 15:00:10;;;;;;;55.33;41.58;;;;;;;;;;5091896;28;20034;-65
2023/02/21 15:02:46;;;;;;;61.63;41.85;;;;;;;;;;5070112;28;20500;-64
2023/02/21 15:05:15;;;;;;;57.75;41.80;;;;;;;;;;5092209;28;20357;-65
2023/02/21 15:07:47;;;;;;;52.72;38.53;;;;;;;;;;5074843;28;20359;-63
2023/02/21 15:10:18;;;;;;;51.80;38.42;;;;;;;;;;5092691;28;20101;-66
2023/02/21 15:12:49;;;;;;;58.15;37.70;;;;;;;;;;4711217;28;10000200;-61
2023/02/21 15:15:17;;;;;;;61.53;40.78;;;;;;;;;;5078032;28;20476;-65
2023/02/21 15:17:43;;;;;;;57.20;39.55;;;;;;;;;;5089110;28;20484;-65
2023/02/21 15:20:16;;;;;;;54.15;37.92;;;;;;;;;;5088979;28;20081;-65
2023/02/21 15:22:43;;;;;;;58.40;41.60;;;;;;;;;;5066406;28;20063;-67
2023/02/21 15:25:09;;;;;;;59.05;40.33;;;;;;;;;;5088074;28;20392;-64
2023/02/21 15:27:38;;;;;;;58.70;39.15;;;;;;;;;;5088905;28;20492;-63
2023/02/21 15:30:07;;;;;;;61.45;40.72;;;;;;;;;;5089505;28;20021;-65
2023/02/21 15:32:35;;;;;;;58.28;40.08;;;;;;;;;;5089546;28;20031;-65
2023/02/21 15:35:03;;;;;;;57.72;40.33;;;;;;;;;;5089002;28;20032;-66
2023/02/21 15:37:30;;;;;;;62.40;40.47;;;;;;;;;;5093300;28;20055;-64
2023/02/21 15:39:58;;;;;;;61.03;40.50;;;;;;;;;;5096740;28;20032;-67
2023/02/21 15:42:25;;;;;;;57.33;39.22;;;;;;;;;;5095547;28;20077;-63
2023/02/21 15:44:55;;;;;;;55.33;35.95;;;;;;;;;;5091496;28;20511;-66
2023/02/21 15:47:23;;;;;;;54.83;38.45;;;;;;;;;;5078172;28;20276;-65
2023/02/21 15:49:53;;;;;;;54.78;36.97;;;;;;;;;;5069855;28;20020;-64
2023/02/21 15:52:28;;;;;;;52.70;36.83;;;;;;;;;;5069242;28;20020;-65
2023/02/21 15:55:12;;;;;;;49.78;35.72;;;;;;;;;;5068081;28;20043;-64
2023/02/21 15:57:38;;;;;;;47.75;34.75;;;;;;;;;;5069862;28;20153;-64
2023/02/21 16:00:18;;;;;;;54.63;38.45;;;;;;;;;;5051568;28;20135;-65
2023/02/21 16:02:45;;;;;;;51.00;37.80;;;;;;;;;;5069797;28;20063;-65
2023/02/21 16:05:30;;;;;;;54.53;38.38;;;;;;;;;;5068639;28;20115;-63
2023/02/21 16:08:03;;;;;;;55.95;39.92;;;;;;;;;;5068791;28;20049;-66
2023/02/21 16:10:29;;;;;;;52.65;36.38;;;;;;;;;;5068887;28;20052;-64
2023/02/21 16:13:00;;;;;;;48.58;35.70;;;;;;;;;;5051317;28;20028;-65
2023/02/21 16:15:36;;;;;;;53.15;37.13;;;;;;;;;;5088673;28;20035;-65
2023/02/21 16:18:04;;;;;;;53.83;36.92;;;;;;;;;;5088919;28;20480;-65
2023/02/21 16:20:32;;;;;;;63.80;40.70;;;;;;;;;;5089247;28;20085;-69
2023/02/21 16:23:21;;;;;;;62.22;40.83;;;;;;;;;;5070352;28;20038;-64
2023/02/21 16:25:56;;;;;;;63.33;41.22;;;;;;;;;;5088999;28;20369;-63
2023/02/21 16:28:22;;;;;;;65.75;41.53;;;;;;;;;;5070727;28;20821;-64
2023/02/21 16:30:48;;;;;;;63.75;42.28;;;;;;;;;;5088314;28;20484;-65
2023/02/21 16:33:14;;;;;;;70.65;43.50;;;;;;;;;;5087854;28;20400;-63
2023/02/21 16:35:41;;;;;;;62.28;42.22;;;;;;;;;;5089932;28;20035;-64
2023/02/21 16:38:10;;;;;;;66.95;43.35;;;;;;;;;;5072803;28;20123;-63
2023/02/21 16:40:36;;;;;;;73.50;46.40;;;;;;;;;;5090916;28;20067;-65
2023/02/21 16:43:04;;;;;;;72.07;45.13;;;;;;;;;;5072194;28;20031;-63